Allen, South Dakota
Current Conditions -  °F | °C
As of 5:52 PM on Wednesday 22 Oct 2014 (Local Time) from KIEN Reporting Station
Clear Clear  
Wind Chill: 54°   Ceiling: Unl
Heat Index: 54°   Visibility: 10mi
Dew Point: 32°   Wind: 5mph
Humidity: 43%   Direction: 230°SW
Pressure: 30.02"   Gusts: NA
Location:  43.28°N, 101.93°W
Report Text: KIEN 222352Z AUTO 23004KT 10SM CLR 12/00 A3002 RMK AO2 SLP159 T01220000 10178 20122 53000
Loading
Personal Weather Stations






























Interactive Weather Map New forecast layout! Learn more

10-Day Weather Forecast

Advertisements
Track Severe Weather on mobile